Terminal Aerodrome Forecast
Issued by NWS

Home | Current Version | Previous Version | Text Only | Print | Product List | Glossary On
Versions: 1 2 3 4 5 6 7 8 9 10 11 12 13 14 15 16 17 18 19 20 21 22 23 24 25 26 27 28 29 30
786
FTUS43 KAPX 281120
TAFPLN
TAF
KPLN 281120Z 2812/2912 17006KT P6SM BKN090
     FM281600 19010KT P6SM BKN080
     FM281900 19010KT P6SM VCTS BKN060CB
     FM282300 20006KT P6SM VCSH BKN090
     FM290900 19004KT P6SM BKN030=

USA.gov is the U.S. government's official web portal to all federal, state and local government web resources and services.